sensor_id;sensor_type;location;lat;lon;timestamp;P1;durP1;ratioP1;P2;durP2;ratioP2
39698;SDS011;25372;50.582;12.250;2023-02-28T00:03:33;6.32;;;2.78;;
39698;SDS011;25372;50.582;12.250;2023-02-28T00:13:55;4.82;;;2.53;;
39698;SDS011;25372;50.582;12.250;2023-02-28T00:24:16;6.65;;;3.30;;
39698;SDS011;25372;50.582;12.250;2023-02-28T00:34:38;7.75;;;3.25;;
39698;SDS011;25372;50.582;12.250;2023-02-28T00:44:59;4.18;;;2.45;;
39698;SDS011;25372;50.582;12.250;2023-02-28T00:55:21;5.28;;;2.70;;
39698;SDS011;25372;50.582;12.250;2023-02-28T01:05:42;7.05;;;2.22;;
39698;SDS011;25372;50.582;12.250;2023-02-28T01:16:05;6.90;;;2.45;;
39698;SDS011;25372;50.582;12.250;2023-02-28T01:26:27;5.32;;;2.78;;
39698;SDS011;25372;50.582;12.250;2023-02-28T01:36:50;5.68;;;2.90;;
39698;SDS011;25372;50.582;12.250;2023-02-28T01:47:12;5.85;;;2.50;;
39698;SDS011;25372;50.582;12.250;2023-02-28T01:57:36;4.20;;;2.17;;
39698;SDS011;25372;50.582;12.250;2023-02-28T02:08:02;9.80;;;3.45;;
39698;SDS011;25372;50.582;12.250;2023-02-28T02:18:29;9.95;;;3.55;;
39698;SDS011;25372;50.582;12.250;2023-02-28T02:29:01;5.55;;;2.92;;
39698;SDS011;25372;50.582;12.250;2023-02-28T02:39:40;6.50;;;2.47;;
39698;SDS011;25372;50.582;12.250;2023-02-28T02:50:11;4.63;;;2.17;;
39698;SDS011;25372;50.582;12.250;2023-02-28T03:00:37;9.95;;;3.55;;
39698;SDS011;25372;50.582;12.250;2023-02-28T03:11:03;12.43;;;3.30;;
39698;SDS011;25372;50.582;12.250;2023-02-28T03:21:30;7.38;;;2.63;;
39698;SDS011;25372;50.582;12.250;2023-02-28T03:31:57;5.10;;;2.88;;
39698;SDS011;25372;50.582;12.250;2023-02-28T03:42:24;6.10;;;2.97;;
39698;SDS011;25372;50.582;12.250;2023-02-28T03:52:49;5.57;;;2.80;;
39698;SDS011;25372;50.582;12.250;2023-02-28T04:03:13;7.72;;;3.17;;
39698;SDS011;25372;50.582;12.250;2023-02-28T04:13:34;6.80;;;2.63;;
39698;SDS011;25372;50.582;12.250;2023-02-28T04:23:55;5.65;;;3.13;;
39698;SDS011;25372;50.582;12.250;2023-02-28T04:34:20;8.70;;;3.30;;
39698;SDS011;25372;50.582;12.250;2023-02-28T04:44:42;5.70;;;3.30;;
39698;SDS011;25372;50.582;12.250;2023-02-28T04:55:03;10.53;;;2.60;;
39698;SDS011;25372;50.582;12.250;2023-02-28T05:05:26;5.67;;;4.63;;
39698;SDS011;25372;50.582;12.250;2023-02-28T05:15:47;11.13;;;3.03;;
39698;SDS011;25372;50.582;12.250;2023-02-28T05:26:09;8.77;;;4.10;;
39698;SDS011;25372;50.582;12.250;2023-02-28T05:36:30;7.07;;;4.40;;
39698;SDS011;25372;50.582;12.250;2023-02-28T05:46:52;11.50;;;5.03;;
39698;SDS011;25372;50.582;12.250;2023-02-28T05:57:12;7.77;;;4.10;;
39698;SDS011;25372;50.582;12.250;2023-02-28T06:07:35;6.88;;;4.35;;
39698;SDS011;25372;50.582;12.250;2023-02-28T06:17:56;7.18;;;4.18;;
39698;SDS011;25372;50.582;12.250;2023-02-28T06:28:19;10.35;;;6.28;;
39698;SDS011;25372;50.582;12.250;2023-02-28T06:38:41;12.35;;;5.18;;
39698;SDS011;25372;50.582;12.250;2023-02-28T06:49:03;13.17;;;4.87;;
39698;SDS011;25372;50.582;12.250;2023-02-28T06:59:24;12.60;;;4.80;;
39698;SDS011;25372;50.582;12.250;2023-02-28T07:09:46;12.82;;;4.97;;
39698;SDS011;25372;50.582;12.250;2023-02-28T07:20:07;11.23;;;6.03;;
39698;SDS011;25372;50.582;12.250;2023-02-28T07:30:30;12.23;;;6.15;;
39698;SDS011;25372;50.582;12.250;2023-02-28T07:40:51;11.30;;;5.63;;
39698;SDS011;25372;50.582;12.250;2023-02-28T07:51:13;13.95;;;5.97;;
39698;SDS011;25372;50.582;12.250;2023-02-28T08:01:34;15.15;;;5.80;;
39698;SDS011;25372;50.582;12.250;2023-02-28T08:11:55;11.95;;;6.25;;
39698;SDS011;25372;50.582;12.250;2023-02-28T08:22:16;16.88;;;6.13;;
39698;SDS011;25372;50.582;12.250;2023-02-28T08:32:38;10.07;;;4.95;;
39698;SDS011;25372;50.582;12.250;2023-02-28T08:42:59;12.63;;;5.18;;
39698;SDS011;25372;50.582;12.250;2023-02-28T08:53:22;11.02;;;4.70;;
39698;SDS011;25372;50.582;12.250;2023-02-28T09:03:43;10.27;;;4.05;;
39698;SDS011;25372;50.582;12.250;2023-02-28T09:14:06;10.75;;;4.22;;
39698;SDS011;25372;50.582;12.250;2023-02-28T09:24:27;8.98;;;3.83;;
39698;SDS011;25372;50.582;12.250;2023-02-28T09:34:49;7.45;;;3.85;;
39698;SDS011;25372;50.582;12.250;2023-02-28T09:45:15;9.43;;;3.72;;
39698;SDS011;25372;50.582;12.250;2023-02-28T10:06:11;6.93;;;2.55;;
39698;SDS011;25372;50.582;12.250;2023-02-28T10:16:37;7.07;;;3.72;;
39698;SDS011;25372;50.582;12.250;2023-02-28T10:27:06;11.00;;;3.90;;
39698;SDS011;25372;50.582;12.250;2023-02-28T10:37:37;12.40;;;4.32;;
39698;SDS011;25372;50.582;12.250;2023-02-28T10:47:59;9.02;;;4.32;;
39698;SDS011;25372;50.582;12.250;2023-02-28T10:58:25;9.52;;;4.38;;
39698;SDS011;25372;50.582;12.250;2023-02-28T11:08:49;8.35;;;5.03;;
39698;SDS011;25372;50.582;12.250;2023-02-28T11:19:16;6.22;;;3.10;;
39698;SDS011;25372;50.582;12.250;2023-02-28T11:29:42;10.25;;;4.25;;
39698;SDS011;25372;50.582;12.250;2023-02-28T11:40:12;9.20;;;4.60;;
39698;SDS011;25372;50.582;12.250;2023-02-28T11:50:45;9.82;;;4.40;;
39698;SDS011;25372;50.582;12.250;2023-02-28T12:01:28;8.05;;;3.33;;
39698;SDS011;25372;50.582;12.250;2023-02-28T12:12:02;8.68;;;3.97;;
39698;SDS011;25372;50.582;12.250;2023-02-28T12:22:34;8.73;;;4.47;;
39698;SDS011;25372;50.582;12.250;2023-02-28T12:33:01;8.88;;;3.47;;
39698;SDS011;25372;50.582;12.250;2023-02-28T12:43:30;11.80;;;4.35;;
39698;SDS011;25372;50.582;12.250;2023-02-28T12:53:56;7.57;;;4.30;;
39698;SDS011;25372;50.582;12.250;2023-02-28T13:04:40;10.43;;;4.13;;
39698;SDS011;25372;50.582;12.250;2023-02-28T13:15:07;9.43;;;3.78;;
39698;SDS011;25372;50.582;12.250;2023-02-28T13:25:51;13.03;;;5.00;;
39698;SDS011;25372;50.582;12.250;2023-02-28T13:36:25;9.82;;;5.30;;
39698;SDS011;25372;50.582;12.250;2023-02-28T13:57:49;8.45;;;5.18;;
39698;SDS011;25372;50.582;12.250;2023-02-28T14:08:22;11.73;;;4.85;;
39698;SDS011;25372;50.582;12.250;2023-02-28T14:18:47;10.70;;;4.97;;
39698;SDS011;25372;50.582;12.250;2023-02-28T14:29:19;9.25;;;4.75;;
39698;SDS011;25372;50.582;12.250;2023-02-28T14:39:55;10.95;;;4.20;;
39698;SDS011;25372;50.582;12.250;2023-02-28T14:50:19;15.48;;;6.53;;
39698;SDS011;25372;50.582;12.250;2023-02-28T15:00:47;14.98;;;5.53;;
39698;SDS011;25372;50.582;12.250;2023-02-28T15:11:14;13.35;;;5.05;;
39698;SDS011;25372;50.582;12.250;2023-02-28T15:21:43;18.65;;;5.35;;
39698;SDS011;25372;50.582;12.250;2023-02-28T15:32:17;13.98;;;5.80;;
39698;SDS011;25372;50.582;12.250;2023-02-28T15:42:57;13.50;;;6.60;;
39698;SDS011;25372;50.582;12.250;2023-02-28T15:53:21;10.32;;;4.93;;
39698;SDS011;25372;50.582;12.250;2023-02-28T16:03:44;8.65;;;5.30;;
39698;SDS011;25372;50.582;12.250;2023-02-28T16:14:12;16.27;;;5.60;;
39698;SDS011;25372;50.582;12.250;2023-02-28T16:24:35;13.23;;;5.57;;
39698;SDS011;25372;50.582;12.250;2023-02-28T16:35:00;8.53;;;4.53;;
39698;SDS011;25372;50.582;12.250;2023-02-28T16:45:21;11.57;;;5.85;;
39698;SDS011;25372;50.582;12.250;2023-02-28T16:55:45;13.77;;;5.32;;
39698;SDS011;25372;50.582;12.250;2023-02-28T17:06:08;27.23;;;11.40;;
39698;SDS011;25372;50.582;12.250;2023-02-28T17:16:40;14.43;;;6.97;;
39698;SDS011;25372;50.582;12.250;2023-02-28T17:27:01;17.33;;;6.90;;
39698;SDS011;25372;50.582;12.250;2023-02-28T17:37:24;13.68;;;6.72;;
39698;SDS011;25372;50.582;12.250;2023-02-28T17:47:45;17.27;;;7.57;;
39698;SDS011;25372;50.582;12.250;2023-02-28T17:58:09;25.42;;;9.90;;
39698;SDS011;25372;50.582;12.250;2023-02-28T18:08:32;10.43;;;5.53;;
39698;SDS011;25372;50.582;12.250;2023-02-28T18:29:18;19.27;;;6.82;;
39698;SDS011;25372;50.582;12.250;2023-02-28T18:39:42;16.55;;;6.70;;
39698;SDS011;25372;50.582;12.250;2023-02-28T18:50:03;20.73;;;9.17;;
39698;SDS011;25372;50.582;12.250;2023-02-28T19:00:26;16.50;;;7.95;;
39698;SDS011;25372;50.582;12.250;2023-02-28T19:10:47;27.00;;;11.33;;
39698;SDS011;25372;50.582;12.250;2023-02-28T19:21:10;30.38;;;11.73;;
39698;SDS011;25372;50.582;12.250;2023-02-28T19:31:32;36.45;;;13.95;;
39698;SDS011;25372;50.582;12.250;2023-02-28T19:41:54;33.20;;;12.23;;
39698;SDS011;25372;50.582;12.250;2023-02-28T19:52:15;30.40;;;14.83;;
39698;SDS011;25372;50.582;12.250;2023-02-28T20:02:37;25.88;;;9.50;;
39698;SDS011;25372;50.582;12.250;2023-02-28T20:12:58;24.70;;;9.33;;
39698;SDS011;25372;50.582;12.250;2023-02-28T20:23:20;24.38;;;10.98;;
39698;SDS011;25372;50.582;12.250;2023-02-28T20:33:41;16.63;;;9.27;;
39698;SDS011;25372;50.582;12.250;2023-02-28T20:44:05;40.75;;;11.75;;
39698;SDS011;25372;50.582;12.250;2023-02-28T20:54:26;28.90;;;11.63;;
39698;SDS011;25372;50.582;12.250;2023-02-28T21:04:49;22.83;;;9.57;;
39698;SDS011;25372;50.582;12.250;2023-02-28T21:15:10;21.63;;;8.93;;
39698;SDS011;25372;50.582;12.250;2023-02-28T21:25:32;20.77;;;8.90;;
39698;SDS011;25372;50.582;12.250;2023-02-28T21:35:58;30.20;;;11.27;;
39698;SDS011;25372;50.582;12.250;2023-02-28T21:46:22;17.33;;;8.82;;
39698;SDS011;25372;50.582;12.250;2023-02-28T21:56:44;29.58;;;9.23;;
39698;SDS011;25372;50.582;12.250;2023-02-28T22:07:06;26.15;;;8.93;;
39698;SDS011;25372;50.582;12.250;2023-02-28T22:17:27;22.55;;;9.27;;
39698;SDS011;25372;50.582;12.250;2023-02-28T22:27:49;19.17;;;8.63;;
39698;SDS011;25372;50.582;12.250;2023-02-28T22:38:10;13.77;;;8.50;;
39698;SDS011;25372;50.582;12.250;2023-02-28T22:48:32;26.13;;;8.13;;
39698;SDS011;25372;50.582;12.250;2023-02-28T22:58:53;15.15;;;7.80;;
39698;SDS011;25372;50.582;12.250;2023-02-28T23:09:17;15.27;;;6.63;;
39698;SDS011;25372;50.582;12.250;2023-02-28T23:19:39;13.98;;;6.95;;
39698;SDS011;25372;50.582;12.250;2023-02-28T23:30:02;16.92;;;5.95;;
39698;SDS011;25372;50.582;12.250;2023-02-28T23:50:45;10.55;;;5.80;;
